createdAt,value
2022-07-28T00:01:09.618Z,99754.28
2022-07-28T00:03:36.614Z,99751.59
2022-07-28T00:06:03.763Z,99753.25
2022-07-28T00:08:30.844Z,99745.69
2022-07-28T00:10:57.806Z,99733.25
2022-07-28T00:13:24.855Z,99731.66
2022-07-28T00:15:51.865Z,99730.38
2022-07-28T00:18:18.991Z,99729.91
2022-07-28T00:20:45.972Z,99731.47
2022-07-28T00:23:12.989Z,99727.69
2022-07-28T00:25:39.945Z,99739.53
2022-07-28T00:28:07.197Z,99727.63
2022-07-28T00:30:34.283Z,99735.44
2022-07-28T00:33:01.459Z,99729.22
2022-07-28T00:35:30.216Z,99735.72
2022-07-28T00:37:59.508Z,99734.00
2022-07-28T00:40:47.216Z,99730.09
2022-07-28T00:43:15.155Z,99727.91
2022-07-28T00:45:43.808Z,99729.47
2022-07-28T00:48:10.783Z,99733.59
2022-07-28T00:50:40.405Z,99736.56
2022-07-28T00:53:08.736Z,99727.13
2022-07-28T00:56:03.413Z,99734.69
2022-07-28T00:58:28.009Z,99732.53
2022-07-28T01:00:55.561Z,99723.31
2022-07-28T01:03:23.760Z,99726.00
2022-07-28T01:05:59.442Z,99715.47
2022-07-28T01:09:19.851Z,99725.41
2022-07-28T01:12:01.344Z,99719.81
2022-07-28T01:14:47.594Z,99715.09
2022-07-28T01:17:33.118Z,99714.56
2022-07-28T01:20:13.735Z,99708.13
2022-07-28T01:23:01.455Z,99719.53
2022-07-28T01:26:14.507Z,99707.88
2022-07-28T01:29:19.007Z,99713.94
2022-07-28T01:32:05.241Z,99698.78
2022-07-28T01:34:50.486Z,99687.97
2022-07-28T01:37:30.873Z,99703.91
2022-07-28T01:40:03.297Z,99697.97
2022-07-28T01:42:38.625Z,99690.31
2022-07-28T01:45:08.839Z,99705.91
2022-07-28T01:47:37.044Z,99691.94
2022-07-28T01:50:09.882Z,99699.75
2022-07-28T01:52:38.985Z,99696.53
2022-07-28T01:55:07.766Z,99703.28
2022-07-28T01:57:37.316Z,99695.78
2022-07-28T02:00:09.905Z,99682.81
2022-07-28T02:02:43.136Z,99691.59
2022-07-28T02:05:14.758Z,99688.38
2022-07-28T02:07:44.415Z,99688.13
2022-07-28T02:10:16.817Z,99675.94
2022-07-28T02:12:49.945Z,99685.69
2022-07-28T02:15:17.735Z,99676.41
2022-07-28T02:17:48.264Z,99678.56
2022-07-28T02:20:16.383Z,99678.56
2022-07-28T02:22:45.334Z,99669.38
2022-07-28T02:25:20.653Z,99664.97
2022-07-28T02:27:58.728Z,99666.97
2022-07-28T02:30:41.335Z,99666.78
2022-07-28T02:33:59.046Z,99655.66
2022-07-28T02:36:25.543Z,99651.81
2022-07-28T02:38:56.461Z,99650.09
2022-07-28T02:41:28.077Z,99646.41
2022-07-28T02:44:01.776Z,99638.88
2022-07-28T02:46:53.469Z,99645.19
2022-07-28T02:49:30.296Z,99647.97
2022-07-28T02:52:00.501Z,99650.09
2022-07-28T02:54:30.816Z,99641.44
2022-07-28T02:56:59.922Z,99649.78
2022-07-28T02:59:29.067Z,99650.28
2022-07-28T03:01:57.399Z,99652.41
2022-07-28T03:04:43.519Z,99650.78
2022-07-28T03:07:11.346Z,99648.34
2022-07-28T03:09:45.654Z,99654.88
2022-07-28T03:12:13.413Z,99651.94
2022-07-28T03:14:41.809Z,99660.06
2022-07-28T03:17:09.559Z,99658.16
2022-07-28T03:19:37.058Z,99670.78
2022-07-28T03:22:05.340Z,99660.28
2022-07-28T03:24:38.690Z,99663.97
2022-07-28T03:27:31.020Z,99656.88
2022-07-28T03:30:07.348Z,99665.03
2022-07-28T03:32:38.527Z,99659.16
2022-07-28T03:35:06.683Z,99658.00
2022-07-28T03:38:13.391Z,99667.19
2022-07-28T03:40:42.270Z,99657.75
2022-07-28T03:43:16.510Z,99661.53
2022-07-28T03:45:46.957Z,99660.97
2022-07-28T03:48:15.007Z,99659.81
2022-07-28T03:50:42.619Z,99662.28
2022-07-28T03:53:25.196Z,99662.75
2022-07-28T03:55:53.538Z,99657.91
2022-07-28T03:58:26.201Z,99667.59
2022-07-28T04:00:56.759Z,99662.38
2022-07-28T04:03:36.708Z,99660.47
2022-07-28T04:06:12.257Z,99661.03
2022-07-28T04:08:39.334Z,99662.13
2022-07-28T04:11:06.359Z,99659.16
2022-07-28T04:13:34.631Z,99655.38
2022-07-28T04:16:01.676Z,99662.19
2022-07-28T04:18:28.741Z,99656.38
2022-07-28T04:20:55.916Z,99652.94
2022-07-28T04:23:24.027Z,99660.22
2022-07-28T04:25:51.011Z,99659.31
2022-07-28T04:28:17.960Z,99656.44
2022-07-28T04:30:45.029Z,99662.63
2022-07-28T04:33:13.168Z,99648.50
2022-07-28T04:35:40.682Z,99655.50
2022-07-28T04:38:08.247Z,99649.44
2022-07-28T04:40:35.458Z,99642.56
2022-07-28T04:43:03.877Z,99655.56
2022-07-28T04:45:31.088Z,99654.50
2022-07-28T04:47:58.145Z,99655.56
2022-07-28T04:50:25.365Z,99657.22
2022-07-28T04:52:59.038Z,99659.41
2022-07-28T04:55:26.495Z,99657.88
2022-07-28T04:57:53.449Z,99666.03
2022-07-28T05:00:22.944Z,99666.84
2022-07-28T05:02:50.449Z,99659.31
2022-07-28T05:05:18.122Z,99658.91
2022-07-28T05:07:45.266Z,99667.00
2022-07-28T05:10:12.879Z,99666.66
2022-07-28T05:12:39.956Z,99663.50
2022-07-28T05:15:08.514Z,99672.25
2022-07-28T05:17:37.064Z,99675.59
2022-07-28T05:20:06.144Z,99671.56
2022-07-28T05:22:48.106Z,99669.84
2022-07-28T05:25:17.723Z,99676.16
2022-07-28T05:27:46.326Z,99674.03
2022-07-28T05:30:14.801Z,99674.03
2022-07-28T05:32:41.940Z,99671.88
2022-07-28T05:35:09.596Z,99667.38
2022-07-28T05:37:37.649Z,99670.44
2022-07-28T05:40:11.848Z,99680.25
2022-07-28T05:42:39.960Z,99674.59
2022-07-28T05:45:16.776Z,99665.97
2022-07-28T05:47:53.272Z,99672.00
2022-07-28T05:50:22.372Z,99680.19
2022-07-28T05:52:51.108Z,99678.13
2022-07-28T05:55:18.935Z,99678.22
2022-07-28T05:57:46.804Z,99674.19
2022-07-28T06:00:23.538Z,99680.00
2022-07-28T06:02:50.901Z,99675.41
2022-07-28T06:05:20.861Z,99680.69
2022-07-28T06:07:49.631Z,99685.66
2022-07-28T06:10:21.598Z,99681.13
2022-07-28T06:12:51.539Z,99683.28
2022-07-28T06:15:25.756Z,99679.00
2022-07-28T06:17:55.400Z,99669.91
2022-07-28T06:20:23.964Z,99676.47
2022-07-28T06:22:54.810Z,99682.50
2022-07-28T06:25:27.871Z,99686.91
2022-07-28T06:28:00.688Z,99683.94
2022-07-28T06:30:28.059Z,99681.75
2022-07-28T06:32:55.738Z,99681.75
2022-07-28T06:35:22.971Z,99682.91
2022-07-28T06:37:52.028Z,99677.81
2022-07-28T06:40:20.639Z,99684.69
2022-07-28T06:42:48.041Z,99683.41
2022-07-28T06:45:21.386Z,99682.94
2022-07-28T06:47:52.686Z,99687.53
2022-07-28T06:50:26.308Z,99690.13
2022-07-28T06:52:58.879Z,99692.94
2022-07-28T06:55:33.769Z,99694.09
2022-07-28T06:58:05.620Z,99698.59
2022-07-28T07:00:33.034Z,99698.19
2022-07-28T07:03:00.946Z,99692.09
2022-07-28T07:05:31.957Z,99694.94
2022-07-28T07:07:59.413Z,99688.19
2022-07-28T07:10:26.605Z,99690.69
2022-07-28T07:12:53.705Z,99685.06
2022-07-28T07:15:20.683Z,99688.38
2022-07-28T07:17:47.681Z,99691.69
2022-07-28T07:20:17.246Z,99684.69
2022-07-28T07:22:47.331Z,99685.22
2022-07-28T07:25:18.235Z,99679.81
2022-07-28T07:27:46.221Z,99690.41
2022-07-28T07:30:15.035Z,99689.06
2022-07-28T07:32:43.177Z,99690.72
2022-07-28T07:35:10.452Z,99679.56
2022-07-28T07:37:37.621Z,99684.44
2022-07-28T07:40:06.329Z,99680.34
2022-07-28T07:42:33.692Z,99683.88
2022-07-28T07:45:00.756Z,99685.50
2022-07-28T07:47:27.968Z,99674.59
2022-07-28T07:49:55.015Z,99681.94
2022-07-28T07:52:22.007Z,99683.81
2022-07-28T07:54:50.683Z,99686.00
2022-07-28T07:57:17.962Z,99674.31
2022-07-28T07:59:45.174Z,99681.91
2022-07-28T08:02:12.241Z,99681.84
2022-07-28T08:04:39.325Z,99677.47
2022-07-28T08:07:07.373Z,99676.91
2022-07-28T08:09:35.450Z,99671.97
2022-07-28T08:12:03.148Z,99673.00
2022-07-28T08:14:30.257Z,99679.22
2022-07-28T08:16:59.097Z,99679.41
2022-07-28T08:19:26.605Z,99679.38
2022-07-28T08:21:55.289Z,99672.75
2022-07-28T08:24:28.976Z,99672.13
2022-07-28T08:27:03.034Z,99669.88
2022-07-28T08:29:30.737Z,99679.03
2022-07-28T08:31:57.910Z,99678.22
2022-07-28T08:34:31.186Z,99675.75
2022-07-28T08:37:02.198Z,99675.16
2022-07-28T08:39:30.790Z,99673.81
2022-07-28T08:42:15.299Z,99667.44
2022-07-28T08:45:03.338Z,99661.63
2022-07-28T08:47:46.076Z,99666.94
2022-07-28T08:50:24.256Z,99672.09
2022-07-28T08:52:53.253Z,99665.66
2022-07-28T08:55:31.321Z,99662.50
2022-07-28T08:58:00.421Z,99661.59
2022-07-28T09:00:27.915Z,99661.19
2022-07-28T09:02:55.577Z,99661.28
2022-07-28T09:05:24.273Z,99647.19
2022-07-28T09:07:55.196Z,99659.69
2022-07-28T09:10:23.272Z,99651.84
2022-07-28T09:12:50.931Z,99654.47
2022-07-28T09:15:17.968Z,99656.59
2022-07-28T09:17:45.741Z,99646.09
2022-07-28T09:20:13.764Z,99653.53
2022-07-28T09:23:02.649Z,99647.06
2022-07-28T09:25:31.274Z,99646.94
2022-07-28T09:28:14.990Z,99637.69
2022-07-28T09:30:53.485Z,99644.25
2022-07-28T09:33:41.145Z,99640.03
2022-07-28T09:36:15.836Z,99635.50
2022-07-28T09:38:43.274Z,99622.88
2022-07-28T09:41:10.992Z,99628.75
2022-07-28T09:43:39.843Z,99626.47
2022-07-28T09:46:13.362Z,99618.06
2022-07-28T09:48:52.650Z,99624.19
2022-07-28T09:51:29.537Z,99617.13
2022-07-28T09:54:17.614Z,99615.94
2022-07-28T09:56:46.331Z,99613.53
2022-07-28T09:59:14.829Z,99614.13
2022-07-28T10:01:59.774Z,99619.47
2022-07-28T10:04:42.254Z,99613.91
2022-07-28T10:07:15.697Z,99602.22
2022-07-28T10:09:43.478Z,99596.78
2022-07-28T10:12:27.252Z,99606.16
2022-07-28T10:14:57.041Z,99598.44
2022-07-28T10:17:33.736Z,99593.25
2022-07-28T10:20:06.465Z,99596.09
2022-07-28T10:22:42.872Z,99577.69
2022-07-28T10:25:12.697Z,99582.47
2022-07-28T10:27:42.011Z,99575.13
2022-07-28T10:30:10.233Z,99579.63
2022-07-28T10:32:42.015Z,99581.41
2022-07-28T10:35:15.569Z,99574.06
2022-07-28T10:38:05.921Z,99573.69
2022-07-28T10:40:40.389Z,99575.91
2022-07-28T10:43:08.864Z,99565.00
2022-07-28T10:46:03.947Z,99563.50
2022-07-28T10:48:25.893Z,99569.75
2022-07-28T10:50:54.817Z,99562.09
2022-07-28T10:53:45.841Z,99561.47
2022-07-28T10:56:42.924Z,99571.72
2022-07-28T10:59:48.914Z,99559.09
2022-07-28T11:02:51.586Z,99565.94
2022-07-28T11:05:39.048Z,99560.56
2022-07-28T11:08:16.993Z,99562.34
2022-07-28T11:10:55.201Z,99563.66
2022-07-28T11:13:32.839Z,99562.34
2022-07-28T11:16:15.730Z,99557.91
2022-07-28T11:19:07.758Z,99563.09
2022-07-28T11:22:16.167Z,99561.53
2022-07-28T11:25:18.928Z,99552.44
2022-07-28T11:27:50.206Z,99553.59
2022-07-28T11:30:27.489Z,99551.41
2022-07-28T11:32:54.437Z,99557.91
2022-07-28T11:35:26.783Z,99546.00
2022-07-28T11:38:02.897Z,99547.53
2022-07-28T11:40:54.156Z,99541.31
2022-07-28T11:43:27.934Z,99524.84
2022-07-28T11:46:11.096Z,99533.66
2022-07-28T11:48:42.094Z,99527.53
2022-07-28T11:51:12.305Z,99524.50
2022-07-28T11:53:52.737Z,99520.78
2022-07-28T11:56:29.268Z,99531.97
2022-07-28T11:59:07.246Z,99528.88
2022-07-28T12:01:38.405Z,99522.56
2022-07-28T12:04:15.794Z,99523.84
2022-07-28T12:06:44.406Z,99522.03
2022-07-28T12:09:23.251Z,99509.09
2022-07-28T12:11:54.210Z,99518.44
2022-07-28T12:14:22.651Z,99521.06
2022-07-28T12:16:53.436Z,99518.97
2022-07-28T12:19:20.790Z,99518.00
2022-07-28T12:21:52.146Z,99503.72
2022-07-28T12:24:45.423Z,99511.28
2022-07-28T12:27:14.984Z,99507.41
2022-07-28T12:29:42.593Z,99513.09
2022-07-28T12:32:10.099Z,99503.75
2022-07-28T12:34:40.300Z,99508.81
2022-07-28T12:37:12.177Z,99495.69
2022-07-28T12:39:41.924Z,99499.72
2022-07-28T12:42:13.204Z,99485.13
2022-07-28T12:44:48.054Z,99490.75
2022-07-28T12:47:28.365Z,99482.09
2022-07-28T12:50:17.871Z,99486.47
2022-07-28T12:53:03.845Z,99485.34
2022-07-28T12:55:32.213Z,99482.72
2022-07-28T12:58:00.347Z,99475.94
2022-07-28T13:00:31.656Z,99472.94
2022-07-28T13:03:00.951Z,99476.97
2022-07-28T13:05:57.409Z,99487.81
2022-07-28T13:08:29.458Z,99481.28
2022-07-28T13:10:58.955Z,99483.19
2022-07-28T13:13:27.280Z,99485.25
2022-07-28T13:16:18.639Z,99475.88
2022-07-28T13:18:58.232Z,99474.56
2022-07-28T13:21:57.335Z,99474.94
2022-07-28T13:24:28.764Z,99474.09
2022-07-28T13:26:57.153Z,99468.56
2022-07-28T13:29:24.454Z,99468.66
2022-07-28T13:31:54.613Z,99458.75
2022-07-28T13:34:22.450Z,99460.41
2022-07-28T13:36:49.551Z,99461.66
2022-07-28T13:39:16.580Z,99458.22
2022-07-28T13:41:57.230Z,99457.53
2022-07-28T13:44:30.290Z,99456.72
2022-07-28T13:46:59.619Z,99451.00
2022-07-28T13:49:28.426Z,99450.56
2022-07-28T13:51:55.784Z,99445.69
2022-07-28T13:54:23.154Z,99442.25
2022-07-28T13:56:51.115Z,99451.28
2022-07-28T13:59:18.083Z,99447.38
2022-07-28T14:01:49.968Z,99450.47
2022-07-28T14:04:21.315Z,99446.50
2022-07-28T14:06:49.139Z,99437.38
2022-07-28T14:09:18.151Z,99437.22
2022-07-28T14:11:49.978Z,99436.75
2022-07-28T14:14:24.787Z,99431.41
2022-07-28T14:16:54.651Z,99427.88
2022-07-28T14:19:39.069Z,99417.97
2022-07-28T14:22:13.790Z,99433.66
2022-07-28T14:24:44.250Z,99416.34
2022-07-28T14:27:11.483Z,99422.50
2022-07-28T14:29:39.919Z,99424.41
2022-07-28T14:32:07.153Z,99418.59
2022-07-28T14:34:34.844Z,99411.34
2022-07-28T14:37:03.513Z,99407.69
2022-07-28T14:39:34.208Z,99405.13
2022-07-28T14:42:01.188Z,99411.56
2022-07-28T14:44:28.408Z,99408.44
2022-07-28T14:46:55.642Z,99408.13
2022-07-28T14:49:22.749Z,99402.91
2022-07-28T14:51:51.006Z,99403.19
2022-07-28T14:54:18.627Z,99407.56
2022-07-28T14:56:45.923Z,99403.00
2022-07-28T14:59:12.897Z,99405.06
2022-07-28T15:01:40.419Z,99407.56
2022-07-28T15:04:07.582Z,99411.47
2022-07-28T15:06:34.558Z,99409.44
2022-07-28T15:09:02.308Z,99411.66
2022-07-28T15:11:29.301Z,99409.81
2022-07-28T15:13:56.277Z,99400.75
2022-07-28T15:16:23.438Z,99406.78
2022-07-28T15:18:53.211Z,99403.81
2022-07-28T15:21:20.368Z,99407.88
2022-07-28T15:23:48.380Z,99398.38
2022-07-28T15:26:15.332Z,99395.69
2022-07-28T15:28:42.430Z,99388.63
2022-07-28T15:31:09.474Z,99385.44
2022-07-28T15:33:45.329Z,99388.81
2022-07-28T15:36:15.366Z,99384.38
2022-07-28T15:38:43.007Z,99387.56
2022-07-28T15:41:16.190Z,99387.19
2022-07-28T15:43:43.741Z,99377.78
2022-07-28T15:46:13.238Z,99386.03
2022-07-28T15:48:43.587Z,99385.59
2022-07-28T15:51:11.007Z,99383.72
2022-07-28T15:53:38.636Z,99385.56
2022-07-28T15:56:06.062Z,99369.47
2022-07-28T15:58:33.659Z,99374.00
2022-07-28T16:01:01.676Z,99369.03
2022-07-28T16:03:30.396Z,99361.69
2022-07-28T16:05:58.594Z,99363.66
2022-07-28T16:08:25.917Z,99363.63
2022-07-28T16:10:53.200Z,99358.59
2022-07-28T16:13:36.451Z,99364.28
2022-07-28T16:16:10.924Z,99359.72
2022-07-28T16:18:42.058Z,99351.31
2022-07-28T16:21:10.696Z,99346.50
2022-07-28T16:23:38.011Z,99344.38
2022-07-28T16:26:07.925Z,99340.81
2022-07-28T16:28:36.369Z,99335.47
2022-07-28T16:31:03.753Z,99336.94
2022-07-28T16:33:33.156Z,99326.88
2022-07-28T16:36:02.213Z,99325.91
2022-07-28T16:38:30.073Z,99323.91
2022-07-28T16:40:57.229Z,99315.91
2022-07-28T16:43:24.521Z,99311.34
2022-07-28T16:45:51.621Z,99313.69
2022-07-28T16:48:18.572Z,99309.03
2022-07-28T16:50:46.154Z,99310.91
2022-07-28T16:53:13.883Z,99305.59
2022-07-28T16:55:42.199Z,99305.22
2022-07-28T16:58:09.327Z,99310.91
2022-07-28T17:00:36.372Z,99303.78
2022-07-28T17:03:03.391Z,99309.09
2022-07-28T17:05:30.353Z,99315.91
2022-07-28T17:07:58.248Z,99322.22
2022-07-28T17:10:27.226Z,99317.56
2022-07-28T17:12:54.897Z,99318.22
2022-07-28T17:15:23.106Z,99313.66
2022-07-28T17:17:51.882Z,99322.03
2022-07-28T17:20:21.525Z,99319.13
2022-07-28T17:22:48.902Z,99325.44
2022-07-28T17:28:05.008Z,99318.97
2022-07-28T17:30:33.658Z,99322.56
2022-07-28T17:33:06.280Z,99324.38
2022-07-28T17:35:37.334Z,99327.59
2022-07-28T17:38:06.871Z,99323.56
2022-07-28T17:40:33.945Z,99332.16
2022-07-28T17:43:00.970Z,99325.19
2022-07-28T17:45:27.947Z,99330.56
2022-07-28T17:47:54.920Z,99335.44
2022-07-28T17:50:21.893Z,99328.44
2022-07-28T17:52:48.928Z,99333.47
2022-07-28T17:55:40.664Z,99338.84
2022-07-28T17:58:28.739Z,99335.44
2022-07-28T18:01:11.168Z,99340.78
2022-07-28T18:03:57.934Z,99344.84
2022-07-28T18:06:29.847Z,99354.69
2022-07-28T18:09:02.807Z,99354.06
2022-07-28T18:11:35.219Z,99357.28
2022-07-28T18:14:17.892Z,99361.97
2022-07-28T18:16:45.135Z,99364.88
2022-07-28T18:19:12.148Z,99366.97
2022-07-28T18:21:39.321Z,99364.50
2022-07-28T18:24:10.244Z,99362.25
2022-07-28T18:26:37.217Z,99356.13
2022-07-28T18:29:04.187Z,99360.31
2022-07-28T18:31:31.905Z,99360.16
2022-07-28T18:33:59.077Z,99347.84
2022-07-28T18:36:26.102Z,99353.97
2022-07-28T18:38:53.068Z,99352.38
2022-07-28T18:41:20.152Z,99353.81
2022-07-28T18:43:47.176Z,99359.09
2022-07-28T18:46:14.323Z,99358.44
2022-07-28T18:48:41.347Z,99356.66
2022-07-28T18:51:08.355Z,99374.09
2022-07-28T18:53:36.442Z,99367.59
2022-07-28T18:56:03.731Z,99369.66
2022-07-28T18:58:30.728Z,99360.78
2022-07-28T19:00:57.690Z,99358.34
2022-07-28T19:03:24.648Z,99357.84
2022-07-28T19:05:53.655Z,99361.53
2022-07-28T19:08:20.992Z,99354.22
2022-07-28T19:10:48.045Z,99357.94
2022-07-28T19:13:15.620Z,99362.44
2022-07-28T19:15:42.669Z,99361.22
2022-07-28T19:18:11.962Z,99368.59
2022-07-28T19:20:45.216Z,99359.34
2022-07-28T19:23:12.166Z,99363.63
2022-07-28T19:25:39.739Z,99367.13
2022-07-28T19:28:07.228Z,99360.66
2022-07-28T19:30:35.247Z,99354.59
2022-07-28T19:33:03.413Z,99353.59
2022-07-28T19:35:30.667Z,99354.94
2022-07-28T19:38:00.127Z,99361.03
2022-07-28T19:40:31.557Z,99352.13
2022-07-28T19:42:59.854Z,99367.88
2022-07-28T19:45:27.345Z,99368.59
2022-07-28T19:47:54.726Z,99371.94
2022-07-28T19:50:22.725Z,99383.00
2022-07-28T19:52:50.109Z,99382.84
2022-07-28T19:55:17.873Z,99391.25
2022-07-28T19:57:45.784Z,99389.13
2022-07-28T20:00:13.684Z,99383.53
2022-07-28T20:02:41.012Z,99387.91
2022-07-28T20:05:09.261Z,99397.75
2022-07-28T20:07:36.426Z,99399.16
2022-07-28T20:10:05.075Z,99405.00
2022-07-28T20:12:36.415Z,99411.50
2022-07-28T20:15:05.869Z,99402.75
2022-07-28T20:17:39.046Z,99408.13
2022-07-28T20:20:12.714Z,99417.06
2022-07-28T20:22:41.716Z,99413.09
2022-07-28T20:25:10.654Z,99413.19
2022-07-28T20:27:42.062Z,99410.16
2022-07-28T20:30:11.640Z,99412.53
2022-07-28T20:32:40.540Z,99418.53
2022-07-28T20:35:10.848Z,99414.88
2022-07-28T20:37:38.888Z,99414.88
2022-07-28T20:40:07.658Z,99428.84
2022-07-28T20:42:36.627Z,99417.91
2022-07-28T20:45:04.739Z,99426.91
2022-07-28T20:47:33.344Z,99431.34
2022-07-28T20:50:01.276Z,99443.47
2022-07-28T20:52:28.360Z,99443.25
2022-07-28T20:54:55.385Z,99447.97
2022-07-28T20:57:23.327Z,99453.66
2022-07-28T20:59:52.038Z,99455.09
2022-07-28T21:02:23.147Z,99459.06
2022-07-28T21:04:51.362Z,99456.34
2022-07-28T21:08:05.493Z,99464.03
2022-07-28T21:10:08.916Z,99469.25
2022-07-28T21:12:37.265Z,99464.69
2022-07-28T21:15:09.339Z,99472.97
2022-07-28T21:17:36.816Z,99463.94
2022-07-28T21:20:05.940Z,99462.06
2022-07-28T21:22:33.005Z,99464.84
2022-07-28T21:24:59.981Z,99467.66
2022-07-28T21:27:26.998Z,99463.81
2022-07-28T21:32:19.889Z,99462.78
2022-07-28T21:34:46.882Z,99465.28
2022-07-28T21:37:14.110Z,99457.41
2022-07-28T21:39:41.188Z,99466.97
2022-07-28T21:42:09.317Z,99467.81
2022-07-28T21:44:39.629Z,99476.25
2022-07-28T21:47:06.977Z,99470.22
2022-07-28T21:49:33.996Z,99469.78
2022-07-28T21:52:01.006Z,99473.84
2022-07-28T21:54:28.176Z,99479.81
2022-07-28T21:56:55.260Z,99486.97
2022-07-28T21:59:22.269Z,99487.53
2022-07-28T22:01:49.458Z,99501.47
2022-07-28T22:04:17.029Z,99511.13
2022-07-28T22:06:46.418Z,99526.44
2022-07-28T22:09:14.985Z,99536.56
2022-07-28T22:11:42.184Z,99532.75
2022-07-28T22:14:09.237Z,99538.53
2022-07-28T22:16:36.799Z,99538.94
2022-07-28T22:19:04.056Z,99540.59
2022-07-28T22:21:31.064Z,99539.84
2022-07-28T22:23:58.022Z,99550.75
2022-07-28T22:26:25.110Z,99545.66
2022-07-28T22:28:52.084Z,99556.56
2022-07-28T22:31:19.102Z,99544.50
2022-07-28T22:33:46.114Z,99534.09
2022-07-28T22:36:13.177Z,99540.66
2022-07-28T22:38:40.353Z,99542.34
2022-07-28T22:41:07.432Z,99536.13
2022-07-28T22:43:34.556Z,99544.28
2022-07-28T22:46:01.798Z,99548.94
2022-07-28T22:48:29.008Z,99550.66
2022-07-28T22:50:56.086Z,99549.56
2022-07-28T22:53:23.043Z,99549.81
2022-07-28T22:55:50.032Z,99553.41
2022-07-28T22:58:17.053Z,99563.78
2022-07-28T23:00:44.146Z,99556.16
2022-07-28T23:03:13.084Z,99550.22
2022-07-28T23:05:40.768Z,99545.91
2022-07-28T23:08:07.841Z,99548.13
2022-07-28T23:10:37.850Z,99551.69
2022-07-28T23:13:04.912Z,99547.66
2022-07-28T23:15:39.720Z,99545.56
2022-07-28T23:18:10.543Z,99548.31
2022-07-28T23:20:39.295Z,99543.44
2022-07-28T23:23:07.007Z,99543.72
2022-07-28T23:25:37.381Z,99545.66
2022-07-28T23:28:04.486Z,99548.09
2022-07-28T23:30:31.521Z,99544.31
2022-07-28T23:32:58.540Z,99540.81
2022-07-28T23:35:25.846Z,99539.72
2022-07-28T23:37:52.820Z,99552.81
2022-07-28T23:40:19.945Z,99551.72
2022-07-28T23:42:46.902Z,99544.66
2022-07-28T23:45:13.887Z,99549.00
2022-07-28T23:47:40.943Z,99536.53
2022-07-28T23:50:08.544Z,99535.19
2022-07-28T23:52:35.516Z,99533.28
2022-07-28T23:55:02.591Z,99532.75
2022-07-28T23:57:30.749Z,99536.84
2022-07-28T23:59:59.519Z,99532.75
